sensor_id;sensor_type;location;lat;lon;timestamp;P1;P2;P0
47081;PMS5003;33066;49.296;14.470;2022-07-06T00:02:00;29;27;
47081;PMS5003;33066;49.296;14.470;2022-07-06T00:04:25;33;33;
47081;PMS5003;33066;49.296;14.470;2022-07-06T00:06:51;31;31;
47081;PMS5003;33066;49.296;14.470;2022-07-06T00:09:16;26;25;
47081;PMS5003;33066;49.296;14.470;2022-07-06T00:11:42;33;33;
47081;PMS5003;33066;49.296;14.470;2022-07-06T00:14:07;28;27;
47081;PMS5003;33066;49.296;14.470;2022-07-06T00:16:32;31;30;
47081;PMS5003;33066;49.296;14.470;2022-07-06T00:18:57;24;23;
47081;PMS5003;33066;49.296;14.470;2022-07-06T00:21:22;32;30;
47081;PMS5003;33066;49.296;14.470;2022-07-06T00:23:48;28;25;
47081;PMS5003;33066;49.296;14.470;2022-07-06T00:26:13;33;31;
47081;PMS5003;33066;49.296;14.470;2022-07-06T00:28:38;26;25;
47081;PMS5003;33066;49.296;14.470;2022-07-06T00:31:05;29;27;
47081;PMS5003;33066;49.296;14.470;2022-07-06T00:33:29;34;33;
47081;PMS5003;33066;49.296;14.470;2022-07-06T00:35:55;29;25;
47081;PMS5003;33066;49.296;14.470;2022-07-06T00:38:21;27;27;
47081;PMS5003;33066;49.296;14.470;2022-07-06T00:40:45;27;27;
47081;PMS5003;33066;49.296;14.470;2022-07-06T00:43:11;24;24;
47081;PMS5003;33066;49.296;14.470;2022-07-06T00:45:36;26;26;
47081;PMS5003;33066;49.296;14.470;2022-07-06T00:48:02;24;23;
47081;PMS5003;33066;49.296;14.470;2022-07-06T00:50:28;25;24;
47081;PMS5003;33066;49.296;14.470;2022-07-06T00:52:54;28;28;
47081;PMS5003;33066;49.296;14.470;2022-07-06T00:55:20;23;22;
47081;PMS5003;33066;49.296;14.470;2022-07-06T00:57:45;23;22;
47081;PMS5003;33066;49.296;14.470;2022-07-06T01:00:11;27;22;
47081;PMS5003;33066;49.296;14.470;2022-07-06T01:02:35;25;24;
47081;PMS5003;33066;49.296;14.470;2022-07-06T01:05:04;24;24;
47081;PMS5003;33066;49.296;14.470;2022-07-06T01:07:27;28;27;
47081;PMS5003;33066;49.296;14.470;2022-07-06T01:09:53;24;23;
47081;PMS5003;33066;49.296;14.470;2022-07-06T01:12:20;25;24;
47081;PMS5003;33066;49.296;14.470;2022-07-06T01:14:43;25;25;
47081;PMS5003;33066;49.296;14.470;2022-07-06T01:17:09;24;24;
47081;PMS5003;33066;49.296;14.470;2022-07-06T01:19:34;25;24;
47081;PMS5003;33066;49.296;14.470;2022-07-06T01:22:00;28;24;
47081;PMS5003;33066;49.296;14.470;2022-07-06T01:24:25;29;27;
47081;PMS5003;33066;49.296;14.470;2022-07-06T01:26:50;33;29;
47081;PMS5003;33066;49.296;14.470;2022-07-06T01:29:16;23;23;
47081;PMS5003;33066;49.296;14.470;2022-07-06T01:31:46;30;28;
47081;PMS5003;33066;49.296;14.470;2022-07-06T01:34:08;19;19;
47081;PMS5003;33066;49.296;14.470;2022-07-06T01:36:32;23;21;
47081;PMS5003;33066;49.296;14.470;2022-07-06T01:38:57;23;23;
47081;PMS5003;33066;49.296;14.470;2022-07-06T01:41:22;27;26;
47081;PMS5003;33066;49.296;14.470;2022-07-06T01:43:48;23;23;
47081;PMS5003;33066;49.296;14.470;2022-07-06T01:46:15;24;24;
47081;PMS5003;33066;49.296;14.470;2022-07-06T01:48:39;30;28;
47081;PMS5003;33066;49.296;14.470;2022-07-06T01:51:04;25;23;
47081;PMS5003;33066;49.296;14.470;2022-07-06T01:53:30;19;19;
47081;PMS5003;33066;49.296;14.470;2022-07-06T01:55:55;29;29;
47081;PMS5003;33066;49.296;14.470;2022-07-06T01:58:20;21;20;
47081;PMS5003;33066;49.296;14.470;2022-07-06T02:00:46;19;19;
47081;PMS5003;33066;49.296;14.470;2022-07-06T02:03:11;31;31;
47081;PMS5003;33066;49.296;14.470;2022-07-06T02:05:37;23;21;
47081;PMS5003;33066;49.296;14.470;2022-07-06T02:08:02;26;24;
47081;PMS5003;33066;49.296;14.470;2022-07-06T02:10:28;23;23;
47081;PMS5003;33066;49.296;14.470;2022-07-06T02:12:53;21;20;
47081;PMS5003;33066;49.296;14.470;2022-07-06T02:15:19;27;27;
47081;PMS5003;33066;49.296;14.470;2022-07-06T02:17:44;27;26;
47081;PMS5003;33066;49.296;14.470;2022-07-06T02:20:11;24;23;
47081;PMS5003;33066;49.296;14.470;2022-07-06T02:22:37;30;27;
47081;PMS5003;33066;49.296;14.470;2022-07-06T02:25:00;25;25;
47081;PMS5003;33066;49.296;14.470;2022-07-06T02:27:25;25;25;
47081;PMS5003;33066;49.296;14.470;2022-07-06T02:29:51;22;20;
47081;PMS5003;33066;49.296;14.470;2022-07-06T02:32:16;15;15;
47081;PMS5003;33066;49.296;14.470;2022-07-06T02:34:42;17;14;
47081;PMS5003;33066;49.296;14.470;2022-07-06T02:37:07;7;7;
47081;PMS5003;33066;49.296;14.470;2022-07-06T02:39:32;10;8;
47081;PMS5003;33066;49.296;14.470;2022-07-06T02:41:57;7;7;
47081;PMS5003;33066;49.296;14.470;2022-07-06T02:44:22;10;8;
47081;PMS5003;33066;49.296;14.470;2022-07-06T02:46:47;7;6;
47081;PMS5003;33066;49.296;14.470;2022-07-06T02:49:13;11;6;
47081;PMS5003;33066;49.296;14.470;2022-07-06T02:51:38;8;7;
47081;PMS5003;33066;49.296;14.470;2022-07-06T02:54:04;8;7;
47081;PMS5003;33066;49.296;14.470;2022-07-06T02:56:29;10;10;
47081;PMS5003;33066;49.296;14.470;2022-07-06T02:58:55;10;8;
47081;PMS5003;33066;49.296;14.470;2022-07-06T03:01:20;6;6;
47081;PMS5003;33066;49.296;14.470;2022-07-06T03:03:45;6;6;
47081;PMS5003;33066;49.296;14.470;2022-07-06T03:06:10;8;7;
47081;PMS5003;33066;49.296;14.470;2022-07-06T03:08:36;8;7;
47081;PMS5003;33066;49.296;14.470;2022-07-06T03:12:58;8;8;
47081;PMS5003;33066;49.296;14.470;2022-07-06T03:15:23;8;8;
47081;PMS5003;33066;49.296;14.470;2022-07-06T03:17:49;12;12;
47081;PMS5003;33066;49.296;14.470;2022-07-06T03:20:14;7;7;
47081;PMS5003;33066;49.296;14.470;2022-07-06T03:22:39;8;7;
47081;PMS5003;33066;49.296;14.470;2022-07-06T03:25:05;8;6;
47081;PMS5003;33066;49.296;14.470;2022-07-06T03:27:30;8;7;
47081;PMS5003;33066;49.296;14.470;2022-07-06T03:29:56;8;8;
47081;PMS5003;33066;49.296;14.470;2022-07-06T03:32:20;6;6;
47081;PMS5003;33066;49.296;14.470;2022-07-06T03:34:45;9;8;
47081;PMS5003;33066;49.296;14.470;2022-07-06T03:37:10;20;18;
47081;PMS5003;33066;49.296;14.470;2022-07-06T03:39:36;9;8;
47081;PMS5003;33066;49.296;14.470;2022-07-06T03:42:03;9;6;
47081;PMS5003;33066;49.296;14.470;2022-07-06T03:44:26;8;6;
47081;PMS5003;33066;49.296;14.470;2022-07-06T03:46:53;7;7;
47081;PMS5003;33066;49.296;14.470;2022-07-06T03:49:18;7;7;
47081;PMS5003;33066;49.296;14.470;2022-07-06T03:51:41;7;7;
47081;PMS5003;33066;49.296;14.470;2022-07-06T03:54:07;7;6;
47081;PMS5003;33066;49.296;14.470;2022-07-06T03:56:31;7;5;
47081;PMS5003;33066;49.296;14.470;2022-07-06T03:58:58;6;6;
47081;PMS5003;33066;49.296;14.470;2022-07-06T04:01:22;6;6;
47081;PMS5003;33066;49.296;14.470;2022-07-06T04:03:48;7;7;
47081;PMS5003;33066;49.296;14.470;2022-07-06T04:06:13;7;7;
47081;PMS5003;33066;49.296;14.470;2022-07-06T04:08:38;9;7;
47081;PMS5003;33066;49.296;14.470;2022-07-06T04:11:03;7;7;
47081;PMS5003;33066;49.296;14.470;2022-07-06T04:13:28;9;9;
47081;PMS5003;33066;49.296;14.470;2022-07-06T04:15:53;10;8;
47081;PMS5003;33066;49.296;14.470;2022-07-06T04:18:18;8;8;
47081;PMS5003;33066;49.296;14.470;2022-07-06T04:20:43;9;7;
47081;PMS5003;33066;49.296;14.470;2022-07-06T04:23:09;7;7;
47081;PMS5003;33066;49.296;14.470;2022-07-06T04:25:34;11;8;
47081;PMS5003;33066;49.296;14.470;2022-07-06T04:28:01;7;7;
47081;PMS5003;33066;49.296;14.470;2022-07-06T04:30:26;8;8;
47081;PMS5003;33066;49.296;14.470;2022-07-06T04:32:50;7;7;
47081;PMS5003;33066;49.296;14.470;2022-07-06T04:35:16;9;9;
47081;PMS5003;33066;49.296;14.470;2022-07-06T04:37:40;8;7;
47081;PMS5003;33066;49.296;14.470;2022-07-06T04:40:06;11;10;
47081;PMS5003;33066;49.296;14.470;2022-07-06T04:42:30;8;8;
47081;PMS5003;33066;49.296;14.470;2022-07-06T04:44:56;9;8;
47081;PMS5003;33066;49.296;14.470;2022-07-06T04:47:23;8;8;
47081;PMS5003;33066;49.296;14.470;2022-07-06T04:49:49;8;7;
47081;PMS5003;33066;49.296;14.470;2022-07-06T04:52:12;8;8;
47081;PMS5003;33066;49.296;14.470;2022-07-06T04:54:37;10;10;
47081;PMS5003;33066;49.296;14.470;2022-07-06T04:57:03;10;10;
47081;PMS5003;33066;49.296;14.470;2022-07-06T04:59:28;9;9;
47081;PMS5003;33066;49.296;14.470;2022-07-06T05:01:53;11;9;
47081;PMS5003;33066;49.296;14.470;2022-07-06T05:04:18;11;11;
47081;PMS5003;33066;49.296;14.470;2022-07-06T05:06:43;13;13;
47081;PMS5003;33066;49.296;14.470;2022-07-06T05:09:09;13;13;
47081;PMS5003;33066;49.296;14.470;2022-07-06T05:11:36;13;13;
47081;PMS5003;33066;49.296;14.470;2022-07-06T05:13:59;9;9;
47081;PMS5003;33066;49.296;14.470;2022-07-06T05:16:26;12;12;
47081;PMS5003;33066;49.296;14.470;2022-07-06T05:18:50;11;11;
47081;PMS5003;33066;49.296;14.470;2022-07-06T05:21:17;12;11;
47081;PMS5003;33066;49.296;14.470;2022-07-06T05:23:41;11;11;
47081;PMS5003;33066;49.296;14.470;2022-07-06T05:26:06;16;12;
47081;PMS5003;33066;49.296;14.470;2022-07-06T05:28:31;10;10;
47081;PMS5003;33066;49.296;14.470;2022-07-06T05:30:57;12;10;
47081;PMS5003;33066;49.296;14.470;2022-07-06T05:33:22;12;12;
47081;PMS5003;33066;49.296;14.470;2022-07-06T05:35:47;13;13;
47081;PMS5003;33066;49.296;14.470;2022-07-06T05:38:13;11;11;
47081;PMS5003;33066;49.296;14.470;2022-07-06T05:40:38;11;11;
47081;PMS5003;33066;49.296;14.470;2022-07-06T05:43:04;12;12;
47081;PMS5003;33066;49.296;14.470;2022-07-06T05:45:29;14;14;
47081;PMS5003;33066;49.296;14.470;2022-07-06T05:47:56;18;17;
47081;PMS5003;33066;49.296;14.470;2022-07-06T05:50:21;13;13;
47081;PMS5003;33066;49.296;14.470;2022-07-06T05:52:55;13;12;
47081;PMS5003;33066;49.296;14.470;2022-07-06T05:55:10;19;16;
47081;PMS5003;33066;49.296;14.470;2022-07-06T05:57:36;16;14;
47081;PMS5003;33066;49.296;14.470;2022-07-06T06:00:00;14;11;
47081;PMS5003;33066;49.296;14.470;2022-07-06T06:02:25;12;12;
47081;PMS5003;33066;49.296;14.470;2022-07-06T06:04:50;13;13;
47081;PMS5003;33066;49.296;14.470;2022-07-06T06:07:16;14;13;
47081;PMS5003;33066;49.296;14.470;2022-07-06T06:09:41;11;10;
47081;PMS5003;33066;49.296;14.470;2022-07-06T06:12:07;13;13;
47081;PMS5003;33066;49.296;14.470;2022-07-06T06:14:32;12;12;
47081;PMS5003;33066;49.296;14.470;2022-07-06T06:16:57;16;14;
47081;PMS5003;33066;49.296;14.470;2022-07-06T06:19:22;12;12;
47081;PMS5003;33066;49.296;14.470;2022-07-06T06:21:48;15;15;
47081;PMS5003;33066;49.296;14.470;2022-07-06T06:24:13;14;14;
47081;PMS5003;33066;49.296;14.470;2022-07-06T06:26:38;14;13;
47081;PMS5003;33066;49.296;14.470;2022-07-06T06:29:03;13;13;
47081;PMS5003;33066;49.296;14.470;2022-07-06T06:31:29;18;13;
47081;PMS5003;33066;49.296;14.470;2022-07-06T06:33:54;11;11;
47081;PMS5003;33066;49.296;14.470;2022-07-06T06:36:19;12;12;
47081;PMS5003;33066;49.296;14.470;2022-07-06T06:38:44;14;12;
47081;PMS5003;33066;49.296;14.470;2022-07-06T06:41:09;12;11;
47081;PMS5003;33066;49.296;14.470;2022-07-06T06:43:35;13;12;
47081;PMS5003;33066;49.296;14.470;2022-07-06T06:46:00;13;12;
47081;PMS5003;33066;49.296;14.470;2022-07-06T06:48:25;14;13;
47081;PMS5003;33066;49.296;14.470;2022-07-06T06:50:50;12;10;
47081;PMS5003;33066;49.296;14.470;2022-07-06T06:53:16;12;12;
47081;PMS5003;33066;49.296;14.470;2022-07-06T06:55:41;15;13;
47081;PMS5003;33066;49.296;14.470;2022-07-06T06:58:06;13;12;
47081;PMS5003;33066;49.296;14.470;2022-07-06T07:00:31;9;9;
47081;PMS5003;33066;49.296;14.470;2022-07-06T07:02:56;8;8;
47081;PMS5003;33066;49.296;14.470;2022-07-06T07:05:21;9;9;
47081;PMS5003;33066;49.296;14.470;2022-07-06T07:07:47;8;8;
47081;PMS5003;33066;49.296;14.470;2022-07-06T07:10:11;8;8;
47081;PMS5003;33066;49.296;14.470;2022-07-06T07:15:01;7;7;
47081;PMS5003;33066;49.296;14.470;2022-07-06T07:17:26;11;10;
47081;PMS5003;33066;49.296;14.470;2022-07-06T07:19:51;9;9;
47081;PMS5003;33066;49.296;14.470;2022-07-06T07:22:16;9;8;
47081;PMS5003;33066;49.296;14.470;2022-07-06T07:24:42;11;9;
47081;PMS5003;33066;49.296;14.470;2022-07-06T07:27:07;7;7;
47081;PMS5003;33066;49.296;14.470;2022-07-06T07:29:32;6;6;
47081;PMS5003;33066;49.296;14.470;2022-07-06T07:31:58;10;8;
47081;PMS5003;33066;49.296;14.470;2022-07-06T07:34:22;7;7;
47081;PMS5003;33066;49.296;14.470;2022-07-06T07:36:47;10;10;
47081;PMS5003;33066;49.296;14.470;2022-07-06T07:39:14;8;8;
47081;PMS5003;33066;49.296;14.470;2022-07-06T07:41:37;8;7;
47081;PMS5003;33066;49.296;14.470;2022-07-06T07:44:02;9;9;
47081;PMS5003;33066;49.296;14.470;2022-07-06T07:46:27;7;7;
47081;PMS5003;33066;49.296;14.470;2022-07-06T07:48:52;12;8;
47081;PMS5003;33066;49.296;14.470;2022-07-06T07:51:17;9;9;
47081;PMS5003;33066;49.296;14.470;2022-07-06T07:53:43;10;10;
47081;PMS5003;33066;49.296;14.470;2022-07-06T07:56:08;7;7;
47081;PMS5003;33066;49.296;14.470;2022-07-06T07:58:33;11;8;
47081;PMS5003;33066;49.296;14.470;2022-07-06T08:00:58;7;5;
47081;PMS5003;33066;49.296;14.470;2022-07-06T08:03:23;8;7;
47081;PMS5003;33066;49.296;14.470;2022-07-06T08:05:48;10;10;
47081;PMS5003;33066;49.296;14.470;2022-07-06T08:08:13;7;7;
47081;PMS5003;33066;49.296;14.470;2022-07-06T08:10:38;8;7;
47081;PMS5003;33066;49.296;14.470;2022-07-06T08:13:03;7;6;
47081;PMS5003;33066;49.296;14.470;2022-07-06T08:15:28;7;6;
47081;PMS5003;33066;49.296;14.470;2022-07-06T08:17:53;6;6;
47081;PMS5003;33066;49.296;14.470;2022-07-06T08:20:18;10;8;
47081;PMS5003;33066;49.296;14.470;2022-07-06T08:22:45;7;7;
47081;PMS5003;33066;49.296;14.470;2022-07-06T08:25:08;6;6;
47081;PMS5003;33066;49.296;14.470;2022-07-06T08:27:33;6;6;
47081;PMS5003;33066;49.296;14.470;2022-07-06T08:29:58;9;8;
47081;PMS5003;33066;49.296;14.470;2022-07-06T08:32:23;4;4;
47081;PMS5003;33066;49.296;14.470;2022-07-06T08:34:48;4;4;
47081;PMS5003;33066;49.296;14.470;2022-07-06T08:37:13;4;4;
47081;PMS5003;33066;49.296;14.470;2022-07-06T08:39:39;5;5;
47081;PMS5003;33066;49.296;14.470;2022-07-06T08:42:07;5;5;
47081;PMS5003;33066;49.296;14.470;2022-07-06T08:44:31;4;4;
47081;PMS5003;33066;49.296;14.470;2022-07-06T08:46:57;8;7;
47081;PMS5003;33066;49.296;14.470;2022-07-06T08:49:24;5;5;
47081;PMS5003;33066;49.296;14.470;2022-07-06T08:51:48;7;7;
47081;PMS5003;33066;49.296;14.470;2022-07-06T08:54:15;6;6;
47081;PMS5003;33066;49.296;14.470;2022-07-06T08:56:40;6;6;
47081;PMS5003;33066;49.296;14.470;2022-07-06T08:59:06;5;5;
47081;PMS5003;33066;49.296;14.470;2022-07-06T09:01:32;5;5;
47081;PMS5003;33066;49.296;14.470;2022-07-06T09:03:59;5;5;
47081;PMS5003;33066;49.296;14.470;2022-07-06T09:06:24;5;5;
47081;PMS5003;33066;49.296;14.470;2022-07-06T09:08:50;4;4;
47081;PMS5003;33066;49.296;14.470;2022-07-06T09:11:15;6;6;
47081;PMS5003;33066;49.296;14.470;2022-07-06T09:13:41;6;6;
47081;PMS5003;33066;49.296;14.470;2022-07-06T09:16:10;6;6;
47081;PMS5003;33066;49.296;14.470;2022-07-06T09:20:57;6;6;
47081;PMS5003;33066;49.296;14.470;2022-07-06T09:23:23;8;7;
47081;PMS5003;33066;49.296;14.470;2022-07-06T09:25:49;6;6;
47081;PMS5003;33066;49.296;14.470;2022-07-06T09:28:14;4;4;
47081;PMS5003;33066;49.296;14.470;2022-07-06T09:30:40;7;6;
47081;PMS5003;33066;49.296;14.470;2022-07-06T09:33:06;5;5;
47081;PMS5003;33066;49.296;14.470;2022-07-06T09:35:36;5;5;
47081;PMS5003;33066;49.296;14.470;2022-07-06T09:37:59;6;6;
47081;PMS5003;33066;49.296;14.470;2022-07-06T09:40:23;6;6;
47081;PMS5003;33066;49.296;14.470;2022-07-06T09:42:49;6;6;
47081;PMS5003;33066;49.296;14.470;2022-07-06T09:50:07;5;5;
47081;PMS5003;33066;49.296;14.470;2022-07-06T09:52:36;7;6;
47081;PMS5003;33066;49.296;14.470;2022-07-06T09:55:01;4;4;
47081;PMS5003;33066;49.296;14.470;2022-07-06T09:57:24;5;5;
47081;PMS5003;33066;49.296;14.470;2022-07-06T09:59:51;5;5;
47081;PMS5003;33066;49.296;14.470;2022-07-06T10:02:16;7;6;
47081;PMS5003;33066;49.296;14.470;2022-07-06T10:04:42;5;5;
47081;PMS5003;33066;49.296;14.470;2022-07-06T10:07:08;5;5;
47081;PMS5003;33066;49.296;14.470;2022-07-06T10:09:34;6;6;
47081;PMS5003;33066;49.296;14.470;2022-07-06T10:12:01;4;4;
47081;PMS5003;33066;49.296;14.470;2022-07-06T10:14:27;7;7;
47081;PMS5003;33066;49.296;14.470;2022-07-06T10:16:51;6;6;
47081;PMS5003;33066;49.296;14.470;2022-07-06T10:19:17;7;6;
47081;PMS5003;33066;49.296;14.470;2022-07-06T10:21:43;6;6;
47081;PMS5003;33066;49.296;14.470;2022-07-06T10:24:09;6;6;
47081;PMS5003;33066;49.296;14.470;2022-07-06T10:26:35;6;5;
47081;PMS5003;33066;49.296;14.470;2022-07-06T10:29:00;5;5;
47081;PMS5003;33066;49.296;14.470;2022-07-06T10:31:28;6;6;
47081;PMS5003;33066;49.296;14.470;2022-07-06T10:33:52;9;6;
47081;PMS5003;33066;49.296;14.470;2022-07-06T10:36:18;7;7;
47081;PMS5003;33066;49.296;14.470;2022-07-06T10:38:46;4;4;
47081;PMS5003;33066;49.296;14.470;2022-07-06T10:41:10;6;6;
47081;PMS5003;33066;49.296;14.470;2022-07-06T10:43:36;5;5;
47081;PMS5003;33066;49.296;14.470;2022-07-06T10:46:07;6;6;
47081;PMS5003;33066;49.296;14.470;2022-07-06T10:50:53;5;5;
47081;PMS5003;33066;49.296;14.470;2022-07-06T10:53:22;5;5;
47081;PMS5003;33066;49.296;14.470;2022-07-06T10:55:44;5;5;
47081;PMS5003;33066;49.296;14.470;2022-07-06T10:58:10;6;6;
47081;PMS5003;33066;49.296;14.470;2022-07-06T11:07:53;7;7;
47081;PMS5003;33066;49.296;14.470;2022-07-06T11:10:20;6;6;
47081;PMS5003;33066;49.296;14.470;2022-07-06T11:12:44;7;6;
47081;PMS5003;33066;49.296;14.470;2022-07-06T11:15:10;4;4;
47081;PMS5003;33066;49.296;14.470;2022-07-06T11:17:36;6;6;
47081;PMS5003;33066;49.296;14.470;2022-07-06T11:22:27;6;6;
47081;PMS5003;33066;49.296;14.470;2022-07-06T11:24:53;6;6;
47081;PMS5003;33066;49.296;14.470;2022-07-06T11:27:19;7;7;
47081;PMS5003;33066;49.296;14.470;2022-07-06T11:29:46;7;6;
47081;PMS5003;33066;49.296;14.470;2022-07-06T11:32:11;6;6;
47081;PMS5003;33066;49.296;14.470;2022-07-06T11:34:37;8;7;
47081;PMS5003;33066;49.296;14.470;2022-07-06T11:37:03;8;7;
47081;PMS5003;33066;49.296;14.470;2022-07-06T11:39:28;6;6;
47081;PMS5003;33066;49.296;14.470;2022-07-06T11:41:54;4;4;
47081;PMS5003;33066;49.296;14.470;2022-07-06T11:44:19;7;6;
47081;PMS5003;33066;49.296;14.470;2022-07-06T11:46:45;5;5;
47081;PMS5003;33066;49.296;14.470;2022-07-06T11:49:11;5;5;
47081;PMS5003;33066;49.296;14.470;2022-07-06T11:51:37;5;5;
47081;PMS5003;33066;49.296;14.470;2022-07-06T11:54:07;5;5;
47081;PMS5003;33066;49.296;14.470;2022-07-06T11:56:28;8;7;
47081;PMS5003;33066;49.296;14.470;2022-07-06T11:58:56;5;5;
47081;PMS5003;33066;49.296;14.470;2022-07-06T12:01:20;5;5;
47081;PMS5003;33066;49.296;14.470;2022-07-06T12:03:45;4;4;
47081;PMS5003;33066;49.296;14.470;2022-07-06T12:06:13;5;5;
47081;PMS5003;33066;49.296;14.470;2022-07-06T12:11:02;6;6;
47081;PMS5003;33066;49.296;14.470;2022-07-06T12:13:28;5;5;
47081;PMS5003;33066;49.296;14.470;2022-07-06T12:15:55;5;5;
47081;PMS5003;33066;49.296;14.470;2022-07-06T12:18:19;5;5;
47081;PMS5003;33066;49.296;14.470;2022-07-06T12:20:45;2;2;
47081;PMS5003;33066;49.296;14.470;2022-07-06T12:23:11;5;5;
47081;PMS5003;33066;49.296;14.470;2022-07-06T12:25:37;8;6;
47081;PMS5003;33066;49.296;14.470;2022-07-06T12:28:03;7;5;
47081;PMS5003;33066;49.296;14.470;2022-07-06T12:30:28;6;6;
47081;PMS5003;33066;49.296;14.470;2022-07-06T12:35:19;7;7;
47081;PMS5003;33066;49.296;14.470;2022-07-06T12:40:11;7;7;
47081;PMS5003;33066;49.296;14.470;2022-07-06T12:42:42;5;5;
47081;PMS5003;33066;49.296;14.470;2022-07-06T12:45:02;4;4;
47081;PMS5003;33066;49.296;14.470;2022-07-06T12:47:30;3;3;
47081;PMS5003;33066;49.296;14.470;2022-07-06T12:52:19;4;4;
47081;PMS5003;33066;49.296;14.470;2022-07-06T12:54:46;5;5;
47081;PMS5003;33066;49.296;14.470;2022-07-06T12:57:11;5;4;
47081;PMS5003;33066;49.296;14.470;2022-07-06T12:59:37;6;6;
47081;PMS5003;33066;49.296;14.470;2022-07-06T13:02:02;5;4;
47081;PMS5003;33066;49.296;14.470;2022-07-06T13:04:29;7;6;
47081;PMS5003;33066;49.296;14.470;2022-07-06T13:06:54;5;5;
47081;PMS5003;33066;49.296;14.470;2022-07-06T13:09:19;5;5;
47081;PMS5003;33066;49.296;14.470;2022-07-06T13:11:44;6;5;
47081;PMS5003;33066;49.296;14.470;2022-07-06T13:14:10;5;4;
47081;PMS5003;33066;49.296;14.470;2022-07-06T13:16:36;6;4;
47081;PMS5003;33066;49.296;14.470;2022-07-06T13:19:02;4;4;
47081;PMS5003;33066;49.296;14.470;2022-07-06T13:21:27;5;5;
47081;PMS5003;33066;49.296;14.470;2022-07-06T13:23:54;4;4;
47081;PMS5003;33066;49.296;14.470;2022-07-06T13:26:18;7;6;
47081;PMS5003;33066;49.296;14.470;2022-07-06T13:28:44;6;5;
47081;PMS5003;33066;49.296;14.470;2022-07-06T13:31:10;4;4;
47081;PMS5003;33066;49.296;14.470;2022-07-06T13:33:36;7;6;
47081;PMS5003;33066;49.296;14.470;2022-07-06T13:36:01;8;6;
47081;PMS5003;33066;49.296;14.470;2022-07-06T13:38:27;5;5;
47081;PMS5003;33066;49.296;14.470;2022-07-06T13:40:53;5;5;
47081;PMS5003;33066;49.296;14.470;2022-07-06T13:43:19;6;5;
47081;PMS5003;33066;49.296;14.470;2022-07-06T13:45:45;3;3;
47081;PMS5003;33066;49.296;14.470;2022-07-06T13:48:12;7;7;
47081;PMS5003;33066;49.296;14.470;2022-07-06T13:50:36;4;4;
47081;PMS5003;33066;49.296;14.470;2022-07-06T13:53:01;5;5;
47081;PMS5003;33066;49.296;14.470;2022-07-06T13:55:27;5;5;
47081;PMS5003;33066;49.296;14.470;2022-07-06T13:57:53;5;5;
47081;PMS5003;33066;49.296;14.470;2022-07-06T14:00:19;4;4;
47081;PMS5003;33066;49.296;14.470;2022-07-06T14:02:44;7;7;
47081;PMS5003;33066;49.296;14.470;2022-07-06T14:05:10;5;4;
47081;PMS5003;33066;49.296;14.470;2022-07-06T14:07:36;8;8;
47081;PMS5003;33066;49.296;14.470;2022-07-06T14:10:02;7;7;
47081;PMS5003;33066;49.296;14.470;2022-07-06T14:12:27;7;6;
47081;PMS5003;33066;49.296;14.470;2022-07-06T14:14:52;6;6;
47081;PMS5003;33066;49.296;14.470;2022-07-06T14:17:18;6;5;
47081;PMS5003;33066;49.296;14.470;2022-07-06T14:19:44;6;6;
47081;PMS5003;33066;49.296;14.470;2022-07-06T14:22:10;6;6;
47081;PMS5003;33066;49.296;14.470;2022-07-06T14:24:35;4;4;
47081;PMS5003;33066;49.296;14.470;2022-07-06T14:27:01;7;6;
47081;PMS5003;33066;49.296;14.470;2022-07-06T14:29:27;6;6;
47081;PMS5003;33066;49.296;14.470;2022-07-06T14:31:52;4;4;
47081;PMS5003;33066;49.296;14.470;2022-07-06T14:34:18;5;4;
47081;PMS5003;33066;49.296;14.470;2022-07-06T14:36:43;6;6;
47081;PMS5003;33066;49.296;14.470;2022-07-06T14:39:09;8;7;
47081;PMS5003;33066;49.296;14.470;2022-07-06T14:41:35;7;6;
47081;PMS5003;33066;49.296;14.470;2022-07-06T14:44:00;6;6;
47081;PMS5003;33066;49.296;14.470;2022-07-06T14:46:26;4;4;
47081;PMS5003;33066;49.296;14.470;2022-07-06T14:48:52;6;6;
47081;PMS5003;33066;49.296;14.470;2022-07-06T14:51:18;6;6;
47081;PMS5003;33066;49.296;14.470;2022-07-06T14:53:43;5;5;
47081;PMS5003;33066;49.296;14.470;2022-07-06T14:56:10;6;6;
47081;PMS5003;33066;49.296;14.470;2022-07-06T14:58:36;6;6;
47081;PMS5003;33066;49.296;14.470;2022-07-06T15:01:00;4;4;
47081;PMS5003;33066;49.296;14.470;2022-07-06T15:03:26;4;4;
47081;PMS5003;33066;49.296;14.470;2022-07-06T15:05:52;5;5;
47081;PMS5003;33066;49.296;14.470;2022-07-06T15:08:18;6;6;
47081;PMS5003;33066;49.296;14.470;2022-07-06T15:10:43;5;5;
47081;PMS5003;33066;49.296;14.470;2022-07-06T15:13:09;8;7;
47081;PMS5003;33066;49.296;14.470;2022-07-06T15:15:35;6;5;
47081;PMS5003;33066;49.296;14.470;2022-07-06T15:18:00;6;6;
47081;PMS5003;33066;49.296;14.470;2022-07-06T15:20:26;5;5;
47081;PMS5003;33066;49.296;14.470;2022-07-06T15:22:52;5;5;
47081;PMS5003;33066;49.296;14.470;2022-07-06T15:25:17;7;7;
47081;PMS5003;33066;49.296;14.470;2022-07-06T15:27:43;5;5;
47081;PMS5003;33066;49.296;14.470;2022-07-06T15:30:10;9;5;
47081;PMS5003;33066;49.296;14.470;2022-07-06T15:32:34;6;6;
47081;PMS5003;33066;49.296;14.470;2022-07-06T15:35:00;7;6;
47081;PMS5003;33066;49.296;14.470;2022-07-06T15:37:26;6;6;
47081;PMS5003;33066;49.296;14.470;2022-07-06T15:39:52;7;6;
47081;PMS5003;33066;49.296;14.470;2022-07-06T15:42:17;5;4;
47081;PMS5003;33066;49.296;14.470;2022-07-06T15:44:43;5;5;
47081;PMS5003;33066;49.296;14.470;2022-07-06T15:47:08;7;7;
47081;PMS5003;33066;49.296;14.470;2022-07-06T15:49:34;4;4;
47081;PMS5003;33066;49.296;14.470;2022-07-06T15:52:00;6;6;
47081;PMS5003;33066;49.296;14.470;2022-07-06T15:54:26;5;4;
47081;PMS5003;33066;49.296;14.470;2022-07-06T15:56:51;5;5;
47081;PMS5003;33066;49.296;14.470;2022-07-06T15:59:17;4;4;
47081;PMS5003;33066;49.296;14.470;2022-07-06T16:01:42;7;6;
47081;PMS5003;33066;49.296;14.470;2022-07-06T16:04:08;7;5;
47081;PMS5003;33066;49.296;14.470;2022-07-06T16:06:34;6;6;
47081;PMS5003;33066;49.296;14.470;2022-07-06T16:08:59;6;6;
47081;PMS5003;33066;49.296;14.470;2022-07-06T16:11:25;6;5;
47081;PMS5003;33066;49.296;14.470;2022-07-06T16:13:51;6;6;
47081;PMS5003;33066;49.296;14.470;2022-07-06T16:16:16;5;5;
47081;PMS5003;33066;49.296;14.470;2022-07-06T16:18:43;7;7;
47081;PMS5003;33066;49.296;14.470;2022-07-06T16:21:08;5;5;
47081;PMS5003;33066;49.296;14.470;2022-07-06T16:23:33;6;6;
47081;PMS5003;33066;49.296;14.470;2022-07-06T16:25:59;5;5;
47081;PMS5003;33066;49.296;14.470;2022-07-06T16:28:25;7;7;
47081;PMS5003;33066;49.296;14.470;2022-07-06T16:30:50;7;6;
47081;PMS5003;33066;49.296;14.470;2022-07-06T16:33:16;6;6;
47081;PMS5003;33066;49.296;14.470;2022-07-06T16:35:42;8;7;
47081;PMS5003;33066;49.296;14.470;2022-07-06T16:38:09;6;6;
47081;PMS5003;33066;49.296;14.470;2022-07-06T16:40:33;7;6;
47081;PMS5003;33066;49.296;14.470;2022-07-06T16:42:59;8;8;
47081;PMS5003;33066;49.296;14.470;2022-07-06T16:45:25;6;6;